sensor_id;sensor_type;location;lat;lon;timestamp;temperature;humidity
2623;DHT22;1321;48.690;9.022;2023-02-25T00:01:40;8.00;12.50
2623;DHT22;1321;48.690;9.022;2023-02-25T00:04:20;8.00;1.60
2623;DHT22;1321;48.690;9.022;2023-02-25T00:06:48;8.00;1.00
2623;DHT22;1321;48.690;9.022;2023-02-25T00:09:16;7.90;1.00
2623;DHT22;1321;48.690;9.022;2023-02-25T00:11:44;7.90;2.40
2623;DHT22;1321;48.690;9.022;2023-02-25T00:14:14;7.90;1.00
2623;DHT22;1321;48.690;9.022;2023-02-25T00:16:42;7.90;9.30
2623;DHT22;1321;48.690;9.022;2023-02-25T00:19:10;7.80;18.30
2623;DHT22;1321;48.690;9.022;2023-02-25T00:21:38;7.90;52.50
2623;DHT22;1321;48.690;9.022;2023-02-25T00:24:07;7.90;43.10
2623;DHT22;1321;48.690;9.022;2023-02-25T00:26:42;7.90;30.00
2623;DHT22;1321;48.690;9.022;2023-02-25T00:29:10;7.90;45.50
2623;DHT22;1321;48.690;9.022;2023-02-25T00:31:40;8.00;5.70
2623;DHT22;1321;48.690;9.022;2023-02-25T00:34:08;7.80;1.00
2623;DHT22;1321;48.690;9.022;2023-02-25T00:36:37;7.90;13.80
2623;DHT22;1321;48.690;9.022;2023-02-25T00:39:05;7.80;41.50
2623;DHT22;1321;48.690;9.022;2023-02-25T00:41:35;7.90;62.90
2623;DHT22;1321;48.690;9.022;2023-02-25T00:44:03;7.90;91.60
2623;DHT22;1321;48.690;9.022;2023-02-25T00:46:32;7.90;87.70
2623;DHT22;1321;48.690;9.022;2023-02-25T00:49:02;7.90;91.10
2623;DHT22;1321;48.690;9.022;2023-02-25T00:51:31;7.90;99.90
2623;DHT22;1321;48.690;9.022;2023-02-25T00:53:59;7.80;95.30
2623;DHT22;1321;48.690;9.022;2023-02-25T00:56:28;7.80;99.90
2623;DHT22;1321;48.690;9.022;2023-02-25T00:58:58;7.80;99.90
2623;DHT22;1321;48.690;9.022;2023-02-25T01:01:27;7.80;99.90
2623;DHT22;1321;48.690;9.022;2023-02-25T01:03:56;7.80;99.90
2623;DHT22;1321;48.690;9.022;2023-02-25T01:06:29;7.80;99.90
2623;DHT22;1321;48.690;9.022;2023-02-25T01:08:58;7.80;99.90
2623;DHT22;1321;48.690;9.022;2023-02-25T01:11:29;7.90;99.90
2623;DHT22;1321;48.690;9.022;2023-02-25T01:13:59;7.90;99.90
2623;DHT22;1321;48.690;9.022;2023-02-25T01:16:29;7.90;99.90
2623;DHT22;1321;48.690;9.022;2023-02-25T01:18:59;7.80;99.90
2623;DHT22;1321;48.690;9.022;2023-02-25T01:21:33;7.80;99.90
2623;DHT22;1321;48.690;9.022;2023-02-25T01:24:04;7.80;99.90
2623;DHT22;1321;48.690;9.022;2023-02-25T01:26:35;7.80;99.90
2623;DHT22;1321;48.690;9.022;2023-02-25T01:29:05;7.80;99.90
2623;DHT22;1321;48.690;9.022;2023-02-25T01:31:34;7.80;99.90
2623;DHT22;1321;48.690;9.022;2023-02-25T01:34:06;7.80;99.90
2623;DHT22;1321;48.690;9.022;2023-02-25T01:36:36;7.80;99.90
2623;DHT22;1321;48.690;9.022;2023-02-25T01:39:04;7.80;99.90
2623;DHT22;1321;48.690;9.022;2023-02-25T01:41:36;7.80;73.10
2623;DHT22;1321;48.690;9.022;2023-02-25T01:44:10;7.80;91.00
2623;DHT22;1321;48.690;9.022;2023-02-25T01:46:39;7.80;98.40
2623;DHT22;1321;48.690;9.022;2023-02-25T01:49:11;7.80;29.10
2623;DHT22;1321;48.690;9.022;2023-02-25T01:51:43;7.80;40.40
2623;DHT22;1321;48.690;9.022;2023-02-25T01:54:13;7.70;96.30
2623;DHT22;1321;48.690;9.022;2023-02-25T01:56:45;7.80;90.20
2623;DHT22;1321;48.690;9.022;2023-02-25T01:59:15;7.80;76.10
2623;DHT22;1321;48.690;9.022;2023-02-25T02:01:44;7.70;63.40
2623;DHT22;1321;48.690;9.022;2023-02-25T02:04:13;7.70;31.90
2623;DHT22;1321;48.690;9.022;2023-02-25T02:06:46;7.80;1.00
2623;DHT22;1321;48.690;9.022;2023-02-25T02:09:18;7.70;1.00
2623;DHT22;1321;48.690;9.022;2023-02-25T02:11:46;7.70;1.00
2623;DHT22;1321;48.690;9.022;2023-02-25T02:14:18;7.70;1.00
2623;DHT22;1321;48.690;9.022;2023-02-25T02:17:07;7.80;1.00
2623;DHT22;1321;48.690;9.022;2023-02-25T02:19:48;7.70;5.00
2623;DHT22;1321;48.690;9.022;2023-02-25T02:22:29;7.70;1.00
2623;DHT22;1321;48.690;9.022;2023-02-25T02:31:33;7.60;1.00
2623;DHT22;1321;48.690;9.022;2023-02-25T02:34:14;7.50;1.00
2623;DHT22;1321;48.690;9.022;2023-02-25T02:36:53;7.50;1.00
2623;DHT22;1321;48.690;9.022;2023-02-25T02:39:27;7.50;1.00
2623;DHT22;1321;48.690;9.022;2023-02-25T02:42:04;7.50;1.00
2623;DHT22;1321;48.690;9.022;2023-02-25T02:44:40;7.50;1.00
2623;DHT22;1321;48.690;9.022;2023-02-25T02:47:15;7.40;1.00
2623;DHT22;1321;48.690;9.022;2023-02-25T02:49:48;7.40;1.00
2623;DHT22;1321;48.690;9.022;2023-02-25T02:52:19;7.40;1.00
2623;DHT22;1321;48.690;9.022;2023-02-25T02:54:53;7.40;1.00
2623;DHT22;1321;48.690;9.022;2023-02-25T02:57:24;7.40;1.00
2623;DHT22;1321;48.690;9.022;2023-02-25T02:59:57;7.30;1.00
2623;DHT22;1321;48.690;9.022;2023-02-25T03:02:32;7.40;1.00
2623;DHT22;1321;48.690;9.022;2023-02-25T03:05:08;7.40;1.00
2623;DHT22;1321;48.690;9.022;2023-02-25T03:07:42;7.40;1.00
2623;DHT22;1321;48.690;9.022;2023-02-25T03:10:15;7.40;1.00
2623;DHT22;1321;48.690;9.022;2023-02-25T03:12:44;7.40;1.00
2623;DHT22;1321;48.690;9.022;2023-02-25T03:15:13;7.40;1.00
2623;DHT22;1321;48.690;9.022;2023-02-25T03:17:46;7.30;1.00
2623;DHT22;1321;48.690;9.022;2023-02-25T03:20:18;7.20;1.00
2623;DHT22;1321;48.690;9.022;2023-02-25T03:22:49;7.30;1.00
2623;DHT22;1321;48.690;9.022;2023-02-25T03:25:20;7.30;1.00
2623;DHT22;1321;48.690;9.022;2023-02-25T03:27:51;7.20;1.00
2623;DHT22;1321;48.690;9.022;2023-02-25T03:30:26;7.20;1.00
2623;DHT22;1321;48.690;9.022;2023-02-25T03:33:00;7.30;1.00
2623;DHT22;1321;48.690;9.022;2023-02-25T03:35:31;7.30;1.00
2623;DHT22;1321;48.690;9.022;2023-02-25T03:38:03;7.30;1.00
2623;DHT22;1321;48.690;9.022;2023-02-25T03:40:33;7.20;1.00
2623;DHT22;1321;48.690;9.022;2023-02-25T03:43:07;7.20;1.00
2623;DHT22;1321;48.690;9.022;2023-02-25T03:45:38;7.30;1.00
2623;DHT22;1321;48.690;9.022;2023-02-25T03:48:10;7.30;1.00
2623;DHT22;1321;48.690;9.022;2023-02-25T03:50:42;7.30;1.00
2623;DHT22;1321;48.690;9.022;2023-02-25T03:53:11;7.40;1.00
2623;DHT22;1321;48.690;9.022;2023-02-25T03:55:39;7.30;1.00
2623;DHT22;1321;48.690;9.022;2023-02-25T03:58:08;7.30;1.00
2623;DHT22;1321;48.690;9.022;2023-02-25T04:00:37;7.20;1.00
2623;DHT22;1321;48.690;9.022;2023-02-25T04:03:09;7.30;1.00
2623;DHT22;1321;48.690;9.022;2023-02-25T04:05:38;7.30;1.00
2623;DHT22;1321;48.690;9.022;2023-02-25T04:08:06;7.30;1.00
2623;DHT22;1321;48.690;9.022;2023-02-25T04:10:41;7.20;1.00
2623;DHT22;1321;48.690;9.022;2023-02-25T04:13:10;7.20;1.00
2623;DHT22;1321;48.690;9.022;2023-02-25T04:15:38;7.20;1.00
2623;DHT22;1321;48.690;9.022;2023-02-25T04:18:06;7.20;1.00
2623;DHT22;1321;48.690;9.022;2023-02-25T04:20:36;7.20;1.00
2623;DHT22;1321;48.690;9.022;2023-02-25T04:23:05;7.20;1.00
2623;DHT22;1321;48.690;9.022;2023-02-25T04:25:33;7.20;1.00
2623;DHT22;1321;48.690;9.022;2023-02-25T04:28:03;7.20;1.00
2623;DHT22;1321;48.690;9.022;2023-02-25T04:30:31;7.10;1.00
2623;DHT22;1321;48.690;9.022;2023-02-25T04:33:00;7.10;1.00
2623;DHT22;1321;48.690;9.022;2023-02-25T04:35:28;7.10;1.00
2623;DHT22;1321;48.690;9.022;2023-02-25T04:37:58;7.20;1.00
2623;DHT22;1321;48.690;9.022;2023-02-25T04:40:26;7.10;1.00
2623;DHT22;1321;48.690;9.022;2023-02-25T04:42:54;7.10;99.90
2623;DHT22;1321;48.690;9.022;2023-02-25T04:45:22;7.20;99.90
2623;DHT22;1321;48.690;9.022;2023-02-25T04:47:53;7.10;99.90
2623;DHT22;1321;48.690;9.022;2023-02-25T04:50:26;7.00;99.90
2623;DHT22;1321;48.690;9.022;2023-02-25T04:52:54;7.00;99.90
2623;DHT22;1321;48.690;9.022;2023-02-25T04:55:25;7.00;99.90
2623;DHT22;1321;48.690;9.022;2023-02-25T04:57:53;7.00;99.90
2623;DHT22;1321;48.690;9.022;2023-02-25T05:00:22;6.90;99.90
2623;DHT22;1321;48.690;9.022;2023-02-25T05:02:51;6.90;99.90
2623;DHT22;1321;48.690;9.022;2023-02-25T05:05:19;6.90;99.90
2623;DHT22;1321;48.690;9.022;2023-02-25T05:07:47;6.90;99.90
2623;DHT22;1321;48.690;9.022;2023-02-25T05:10:15;6.90;99.90
2623;DHT22;1321;48.690;9.022;2023-02-25T05:12:46;7.00;99.90
2623;DHT22;1321;48.690;9.022;2023-02-25T05:15:14;6.90;99.90
2623;DHT22;1321;48.690;9.022;2023-02-25T05:17:42;6.80;99.90
2623;DHT22;1321;48.690;9.022;2023-02-25T05:20:10;6.80;99.90
2623;DHT22;1321;48.690;9.022;2023-02-25T05:22:39;6.80;99.90
2623;DHT22;1321;48.690;9.022;2023-02-25T05:25:08;6.80;99.90
2623;DHT22;1321;48.690;9.022;2023-02-25T05:27:37;6.80;99.90
2623;DHT22;1321;48.690;9.022;2023-02-25T05:30:08;6.80;99.90
2623;DHT22;1321;48.690;9.022;2023-02-25T05:32:37;6.80;99.90
2623;DHT22;1321;48.690;9.022;2023-02-25T05:35:07;6.90;99.90
2623;DHT22;1321;48.690;9.022;2023-02-25T05:37:36;6.80;99.90
2623;DHT22;1321;48.690;9.022;2023-02-25T05:40:05;6.80;99.90
2623;DHT22;1321;48.690;9.022;2023-02-25T05:42:35;6.70;99.90
2623;DHT22;1321;48.690;9.022;2023-02-25T05:45:06;6.80;99.90
2623;DHT22;1321;48.690;9.022;2023-02-25T05:47:34;6.80;99.90
2623;DHT22;1321;48.690;9.022;2023-02-25T05:50:03;6.80;99.90
2623;DHT22;1321;48.690;9.022;2023-02-25T05:52:31;6.80;99.90
2623;DHT22;1321;48.690;9.022;2023-02-25T05:55:00;6.70;99.90
2623;DHT22;1321;48.690;9.022;2023-02-25T05:57:28;6.70;99.90
2623;DHT22;1321;48.690;9.022;2023-02-25T05:59:57;6.70;99.90
2623;DHT22;1321;48.690;9.022;2023-02-25T06:02:26;6.70;99.90
2623;DHT22;1321;48.690;9.022;2023-02-25T06:04:54;6.80;99.90
2623;DHT22;1321;48.690;9.022;2023-02-25T06:07:23;6.70;99.90
2623;DHT22;1321;48.690;9.022;2023-02-25T06:09:51;6.70;99.90
2623;DHT22;1321;48.690;9.022;2023-02-25T06:12:20;6.80;99.90
2623;DHT22;1321;48.690;9.022;2023-02-25T06:14:49;6.70;99.90
2623;DHT22;1321;48.690;9.022;2023-02-25T06:17:17;6.70;99.90
2623;DHT22;1321;48.690;9.022;2023-02-25T06:19:46;6.70;99.90
2623;DHT22;1321;48.690;9.022;2023-02-25T06:22:14;6.70;99.90
2623;DHT22;1321;48.690;9.022;2023-02-25T06:24:43;6.70;99.90
2623;DHT22;1321;48.690;9.022;2023-02-25T06:27:11;6.60;99.90
2623;DHT22;1321;48.690;9.022;2023-02-25T06:29:39;6.60;99.90
2623;DHT22;1321;48.690;9.022;2023-02-25T06:32:08;6.60;99.90
2623;DHT22;1321;48.690;9.022;2023-02-25T06:34:37;6.60;99.90
2623;DHT22;1321;48.690;9.022;2023-02-25T06:37:07;6.70;99.90
2623;DHT22;1321;48.690;9.022;2023-02-25T06:39:35;6.70;99.90
2623;DHT22;1321;48.690;9.022;2023-02-25T06:42:03;6.60;99.90
2623;DHT22;1321;48.690;9.022;2023-02-25T06:44:31;6.60;99.90
2623;DHT22;1321;48.690;9.022;2023-02-25T06:47:00;6.70;99.90
2623;DHT22;1321;48.690;9.022;2023-02-25T06:49:28;6.70;99.90
2623;DHT22;1321;48.690;9.022;2023-02-25T06:51:56;6.60;99.90
2623;DHT22;1321;48.690;9.022;2023-02-25T06:54:26;6.60;99.90
2623;DHT22;1321;48.690;9.022;2023-02-25T06:56:54;6.70;99.90
2623;DHT22;1321;48.690;9.022;2023-02-25T06:59:22;6.70;99.90
2623;DHT22;1321;48.690;9.022;2023-02-25T07:01:50;6.80;99.90
2623;DHT22;1321;48.690;9.022;2023-02-25T07:04:19;6.80;99.90
2623;DHT22;1321;48.690;9.022;2023-02-25T07:06:47;6.70;99.90
2623;DHT22;1321;48.690;9.022;2023-02-25T07:09:15;6.80;99.90
2623;DHT22;1321;48.690;9.022;2023-02-25T07:11:44;6.80;99.90
2623;DHT22;1321;48.690;9.022;2023-02-25T07:14:12;6.90;99.90
2623;DHT22;1321;48.690;9.022;2023-02-25T07:16:42;6.90;99.90
2623;DHT22;1321;48.690;9.022;2023-02-25T07:19:10;6.80;99.90
2623;DHT22;1321;48.690;9.022;2023-02-25T07:21:40;6.90;99.90
2623;DHT22;1321;48.690;9.022;2023-02-25T07:24:09;7.10;99.90
2623;DHT22;1321;48.690;9.022;2023-02-25T07:26:37;7.10;99.90
2623;DHT22;1321;48.690;9.022;2023-02-25T07:29:07;7.10;99.90
2623;DHT22;1321;48.690;9.022;2023-02-25T07:31:35;7.20;99.90
2623;DHT22;1321;48.690;9.022;2023-02-25T07:34:04;7.20;99.90
2623;DHT22;1321;48.690;9.022;2023-02-25T07:36:34;7.30;99.90
2623;DHT22;1321;48.690;9.022;2023-02-25T07:39:04;7.30;99.90
2623;DHT22;1321;48.690;9.022;2023-02-25T07:41:33;7.40;99.90
2623;DHT22;1321;48.690;9.022;2023-02-25T07:44:02;7.40;99.90
2623;DHT22;1321;48.690;9.022;2023-02-25T07:46:32;7.60;99.90
2623;DHT22;1321;48.690;9.022;2023-02-25T07:49:00;7.70;99.90
2623;DHT22;1321;48.690;9.022;2023-02-25T07:51:29;8.00;99.90
2623;DHT22;1321;48.690;9.022;2023-02-25T07:54:01;8.40;99.90
2623;DHT22;1321;48.690;9.022;2023-02-25T07:56:29;8.80;99.90
2623;DHT22;1321;48.690;9.022;2023-02-25T07:58:57;8.80;99.90
2623;DHT22;1321;48.690;9.022;2023-02-25T08:01:27;8.80;99.90
2623;DHT22;1321;48.690;9.022;2023-02-25T08:04:00;8.90;99.90
2623;DHT22;1321;48.690;9.022;2023-02-25T08:06:30;9.00;99.90
2623;DHT22;1321;48.690;9.022;2023-02-25T08:08:58;9.30;99.90
2623;DHT22;1321;48.690;9.022;2023-02-25T08:11:26;9.60;99.90
2623;DHT22;1321;48.690;9.022;2023-02-25T08:13:54;9.90;99.90
2623;DHT22;1321;48.690;9.022;2023-02-25T08:16:22;10.20;99.90
2623;DHT22;1321;48.690;9.022;2023-02-25T08:18:51;10.50;99.90
2623;DHT22;1321;48.690;9.022;2023-02-25T08:21:22;10.60;99.90
2623;DHT22;1321;48.690;9.022;2023-02-25T08:23:51;11.00;99.90
2623;DHT22;1321;48.690;9.022;2023-02-25T08:26:21;11.40;99.90
2623;DHT22;1321;48.690;9.022;2023-02-25T08:28:50;11.60;99.90
2623;DHT22;1321;48.690;9.022;2023-02-25T08:31:19;11.70;99.90
2623;DHT22;1321;48.690;9.022;2023-02-25T08:33:49;11.60;99.90
2623;DHT22;1321;48.690;9.022;2023-02-25T08:36:21;11.50;99.90
2623;DHT22;1321;48.690;9.022;2023-02-25T08:38:50;11.20;99.90
2623;DHT22;1321;48.690;9.022;2023-02-25T08:41:19;11.00;99.90
2623;DHT22;1321;48.690;9.022;2023-02-25T08:43:48;10.70;99.90
2623;DHT22;1321;48.690;9.022;2023-02-25T08:46:17;10.30;99.90
2623;DHT22;1321;48.690;9.022;2023-02-25T08:48:48;9.90;99.90
2623;DHT22;1321;48.690;9.022;2023-02-25T08:51:16;9.70;99.90
2623;DHT22;1321;48.690;9.022;2023-02-25T08:53:46;9.40;99.90
2623;DHT22;1321;48.690;9.022;2023-02-25T08:56:15;9.30;99.90
2623;DHT22;1321;48.690;9.022;2023-02-25T08:58:43;9.20;99.90
2623;DHT22;1321;48.690;9.022;2023-02-25T09:01:12;9.00;99.90
2623;DHT22;1321;48.690;9.022;2023-02-25T09:03:42;8.80;99.90
2623;DHT22;1321;48.690;9.022;2023-02-25T09:06:17;8.80;99.90
2623;DHT22;1321;48.690;9.022;2023-02-25T09:08:47;8.80;99.90
2623;DHT22;1321;48.690;9.022;2023-02-25T09:11:23;8.80;99.90
2623;DHT22;1321;48.690;9.022;2023-02-25T09:13:58;8.80;99.90
2623;DHT22;1321;48.690;9.022;2023-02-25T09:16:27;8.90;99.90
2623;DHT22;1321;48.690;9.022;2023-02-25T09:18:56;8.80;99.90
2623;DHT22;1321;48.690;9.022;2023-02-25T09:21:24;8.90;99.90
2623;DHT22;1321;48.690;9.022;2023-02-25T09:23:54;9.10;99.90
2623;DHT22;1321;48.690;9.022;2023-02-25T09:26:22;9.40;99.90
2623;DHT22;1321;48.690;9.022;2023-02-25T09:28:50;9.90;99.90
2623;DHT22;1321;48.690;9.022;2023-02-25T09:31:18;10.60;99.90
2623;DHT22;1321;48.690;9.022;2023-02-25T09:33:47;12.20;99.90
2623;DHT22;1321;48.690;9.022;2023-02-25T09:36:18;13.30;99.90
2623;DHT22;1321;48.690;9.022;2023-02-25T09:38:48;14.90;99.90
2623;DHT22;1321;48.690;9.022;2023-02-25T09:41:25;16.10;99.90
2623;DHT22;1321;48.690;9.022;2023-02-25T09:44:00;17.00;99.90
2623;DHT22;1321;48.690;9.022;2023-02-25T09:46:33;18.10;99.90
2623;DHT22;1321;48.690;9.022;2023-02-25T09:49:07;18.50;99.90
2623;DHT22;1321;48.690;9.022;2023-02-25T09:51:42;16.60;99.90
2623;DHT22;1321;48.690;9.022;2023-02-25T09:54:17;14.90;92.40
2623;DHT22;1321;48.690;9.022;2023-02-25T09:56:48;13.50;77.00
2623;DHT22;1321;48.690;9.022;2023-02-25T09:59:18;12.70;65.60
2623;DHT22;1321;48.690;9.022;2023-02-25T10:01:50;12.10;58.00
2623;DHT22;1321;48.690;9.022;2023-02-25T10:04:27;12.40;59.20
2623;DHT22;1321;48.690;9.022;2023-02-25T10:07:00;12.60;63.60
2623;DHT22;1321;48.690;9.022;2023-02-25T10:09:36;13.30;74.10
2623;DHT22;1321;48.690;9.022;2023-02-25T10:12:13;14.60;91.30
2623;DHT22;1321;48.690;9.022;2023-02-25T10:14:56;14.50;87.30
2623;DHT22;1321;48.690;9.022;2023-02-25T10:17:32;13.70;71.80
2623;DHT22;1321;48.690;9.022;2023-02-25T10:20:31;13.00;60.00
2623;DHT22;1321;48.690;9.022;2023-02-25T10:23:12;12.30;52.50
2623;DHT22;1321;48.690;9.022;2023-02-25T10:25:53;11.70;48.00
2623;DHT22;1321;48.690;9.022;2023-02-25T10:28:24;11.50;47.50
2623;DHT22;1321;48.690;9.022;2023-02-25T10:30:57;11.30;44.40
2623;DHT22;1321;48.690;9.022;2023-02-25T10:33:30;11.10;42.00
2623;DHT22;1321;48.690;9.022;2023-02-25T10:36:08;11.00;42.90
2623;DHT22;1321;48.690;9.022;2023-02-25T10:38:38;10.90;40.40
2623;DHT22;1321;48.690;9.022;2023-02-25T10:41:08;10.60;39.00
2623;DHT22;1321;48.690;9.022;2023-02-25T10:43:38;10.40;37.90
2623;DHT22;1321;48.690;9.022;2023-02-25T10:46:12;10.40;38.60
2623;DHT22;1321;48.690;9.022;2023-02-25T10:48:43;10.50;40.60
2623;DHT22;1321;48.690;9.022;2023-02-25T10:51:14;11.20;46.30
2623;DHT22;1321;48.690;9.022;2023-02-25T10:54:02;12.70;61.80
2623;DHT22;1321;48.690;9.022;2023-02-25T10:56:37;13.50;74.60
2623;DHT22;1321;48.690;9.022;2023-02-25T10:59:24;14.60;84.20
2623;DHT22;1321;48.690;9.022;2023-02-25T11:01:56;16.30;96.50
2623;DHT22;1321;48.690;9.022;2023-02-25T11:04:31;15.80;91.00
2623;DHT22;1321;48.690;9.022;2023-02-25T11:06:59;15.30;85.00
2623;DHT22;1321;48.690;9.022;2023-02-25T11:09:32;14.90;79.20
2623;DHT22;1321;48.690;9.022;2023-02-25T11:12:15;14.20;67.50
2623;DHT22;1321;48.690;9.022;2023-02-25T11:14:46;13.30;55.00
2623;DHT22;1321;48.690;9.022;2023-02-25T11:17:17;12.50;49.00
2623;DHT22;1321;48.690;9.022;2023-02-25T11:19:47;12.00;44.40
2623;DHT22;1321;48.690;9.022;2023-02-25T11:22:21;11.50;40.50
2623;DHT22;1321;48.690;9.022;2023-02-25T11:24:56;11.10;37.70
2623;DHT22;1321;48.690;9.022;2023-02-25T11:27:32;10.90;36.40
2623;DHT22;1321;48.690;9.022;2023-02-25T11:30:14;10.70;34.50
2623;DHT22;1321;48.690;9.022;2023-02-25T11:32:46;10.50;34.00
2623;DHT22;1321;48.690;9.022;2023-02-25T11:35:17;10.60;35.50
2623;DHT22;1321;48.690;9.022;2023-02-25T11:37:47;10.90;39.50
2623;DHT22;1321;48.690;9.022;2023-02-25T11:40:23;10.90;53.00
2623;DHT22;1321;48.690;9.022;2023-02-25T11:43:12;10.80;36.70
2623;DHT22;1321;48.690;9.022;2023-02-25T11:45:53;10.60;33.40
2623;DHT22;1321;48.690;9.022;2023-02-25T11:48:26;10.70;36.60
2623;DHT22;1321;48.690;9.022;2023-02-25T11:51:02;10.70;36.60
2623;DHT22;1321;48.690;9.022;2023-02-25T11:53:43;10.70;37.50
2623;DHT22;1321;48.690;9.022;2023-02-25T11:56:19;10.60;36.50
2623;DHT22;1321;48.690;9.022;2023-02-25T11:59:02;10.60;37.50
2623;DHT22;1321;48.690;9.022;2023-02-25T12:01:42;10.40;35.30
2623;DHT22;1321;48.690;9.022;2023-02-25T12:04:33;10.20;32.90
2623;DHT22;1321;48.690;9.022;2023-02-25T12:07:20;10.20;32.40
2623;DHT22;1321;48.690;9.022;2023-02-25T12:10:17;10.00;31.30
2623;DHT22;1321;48.690;9.022;2023-02-25T12:16:42;9.80;29.70
2623;DHT22;1321;48.690;9.022;2023-02-25T12:19:33;9.70;28.70
2623;DHT22;1321;48.690;9.022;2023-02-25T12:22:28;9.70;28.50
2623;DHT22;1321;48.690;9.022;2023-02-25T12:25:22;9.70;31.50
2623;DHT22;1321;48.690;9.022;2023-02-25T12:28:28;9.80;35.10
2623;DHT22;1321;48.690;9.022;2023-02-25T12:31:28;9.80;33.40
2623;DHT22;1321;48.690;9.022;2023-02-25T12:37:23;9.70;33.30
2623;DHT22;1321;48.690;9.022;2023-02-25T12:40:03;9.50;31.80
2623;DHT22;1321;48.690;9.022;2023-02-25T12:42:45;9.40;30.30
2623;DHT22;1321;48.690;9.022;2023-02-25T12:45:32;9.40;32.40
2623;DHT22;1321;48.690;9.022;2023-02-25T12:48:28;9.50;33.90
2623;DHT22;1321;48.690;9.022;2023-02-25T12:54:26;9.50;34.20
2623;DHT22;1321;48.690;9.022;2023-02-25T12:57:14;9.50;35.10
2623;DHT22;1321;48.690;9.022;2023-02-25T13:03:05;9.20;33.30
2623;DHT22;1321;48.690;9.022;2023-02-25T13:06:02;9.00;32.00
2623;DHT22;1321;48.690;9.022;2023-02-25T13:08:47;8.90;30.90
2623;DHT22;1321;48.690;9.022;2023-02-25T13:11:25;9.00;31.30
2623;DHT22;1321;48.690;9.022;2023-02-25T13:14:24;9.00;30.90
2623;DHT22;1321;48.690;9.022;2023-02-25T13:17:08;8.90;31.80
2623;DHT22;1321;48.690;9.022;2023-02-25T13:20:05;8.90;34.00
2623;DHT22;1321;48.690;9.022;2023-02-25T13:22:54;8.80;33.90
2623;DHT22;1321;48.690;9.022;2023-02-25T13:25:45;8.70;36.70
2623;DHT22;1321;48.690;9.022;2023-02-25T13:28:30;8.60;38.70
2623;DHT22;1321;48.690;9.022;2023-02-25T13:31:06;8.60;41.40
2623;DHT22;1321;48.690;9.022;2023-02-25T13:33:58;8.60;46.90
2623;DHT22;1321;48.690;9.022;2023-02-25T13:36:44;8.50;44.10
2623;DHT22;1321;48.690;9.022;2023-02-25T13:39:26;8.40;42.70
2623;DHT22;1321;48.690;9.022;2023-02-25T13:42:12;8.40;42.30
2623;DHT22;1321;48.690;9.022;2023-02-25T13:47:55;8.30;46.40
2623;DHT22;1321;48.690;9.022;2023-02-25T13:50:41;8.40;48.20
2623;DHT22;1321;48.690;9.022;2023-02-25T13:53:29;8.40;48.90
2623;DHT22;1321;48.690;9.022;2023-02-25T13:56:24;8.30;44.50
2623;DHT22;1321;48.690;9.022;2023-02-25T13:59:06;8.40;46.40
2623;DHT22;1321;48.690;9.022;2023-02-25T14:01:59;8.40;44.20
2623;DHT22;1321;48.690;9.022;2023-02-25T14:04:47;8.40;44.00
2623;DHT22;1321;48.690;9.022;2023-02-25T14:07:41;8.40;40.60
2623;DHT22;1321;48.690;9.022;2023-02-25T14:10:23;8.40;39.90
2623;DHT22;1321;48.690;9.022;2023-02-25T14:13:10;8.40;39.00
2623;DHT22;1321;48.690;9.022;2023-02-25T14:15:54;8.50;39.80
2623;DHT22;1321;48.690;9.022;2023-02-25T14:18:43;8.40;56.10
2623;DHT22;1321;48.690;9.022;2023-02-25T14:21:49;8.60;42.80
2623;DHT22;1321;48.690;9.022;2023-02-25T14:24:25;8.70;41.80
2623;DHT22;1321;48.690;9.022;2023-02-25T14:27:01;8.80;43.40
2623;DHT22;1321;48.690;9.022;2023-02-25T14:29:54;8.90;43.10
2623;DHT22;1321;48.690;9.022;2023-02-25T14:32:38;8.90;42.80
2623;DHT22;1321;48.690;9.022;2023-02-25T14:35:37;8.80;42.30
2623;DHT22;1321;48.690;9.022;2023-02-25T14:38:10;8.80;41.60
2623;DHT22;1321;48.690;9.022;2023-02-25T14:40:42;8.80;40.90
2623;DHT22;1321;48.690;9.022;2023-02-25T14:43:34;8.90;41.50
2623;DHT22;1321;48.690;9.022;2023-02-25T14:46:17;9.00;41.50
2623;DHT22;1321;48.690;9.022;2023-02-25T14:48:58;9.00;41.10
2623;DHT22;1321;48.690;9.022;2023-02-25T14:51:54;9.00;40.20
2623;DHT22;1321;48.690;9.022;2023-02-25T14:54:46;8.90;37.90
2623;DHT22;1321;48.690;9.022;2023-02-25T15:03:41;8.60;32.30
2623;DHT22;1321;48.690;9.022;2023-02-25T15:06:40;8.60;32.60
2623;DHT22;1321;48.690;9.022;2023-02-25T15:09:28;8.60;35.60
2623;DHT22;1321;48.690;9.022;2023-02-25T15:12:15;8.60;36.40
2623;DHT22;1321;48.690;9.022;2023-02-25T15:20:41;8.70;35.50
2623;DHT22;1321;48.690;9.022;2023-02-25T15:23:12;8.60;33.40
2623;DHT22;1321;48.690;9.022;2023-02-25T15:25:45;8.70;34.40
2623;DHT22;1321;48.690;9.022;2023-02-25T15:28:36;8.60;32.70
2623;DHT22;1321;48.690;9.022;2023-02-25T15:37:24;8.80;33.40
2623;DHT22;1321;48.690;9.022;2023-02-25T15:39:56;8.80;34.50
2623;DHT22;1321;48.690;9.022;2023-02-25T15:42:48;8.80;33.40
2623;DHT22;1321;48.690;9.022;2023-02-25T15:45:40;8.70;31.30
2623;DHT22;1321;48.690;9.022;2023-02-25T15:48:30;8.50;29.10
2623;DHT22;1321;48.690;9.022;2023-02-25T15:51:01;8.50;29.30
2623;DHT22;1321;48.690;9.022;2023-02-25T15:53:46;8.50;29.80
2623;DHT22;1321;48.690;9.022;2023-02-25T15:56:47;8.50;29.80
2623;DHT22;1321;48.690;9.022;2023-02-25T15:59:38;8.40;29.80
2623;DHT22;1321;48.690;9.022;2023-02-25T16:02:33;8.40;32.10
2623;DHT22;1321;48.690;9.022;2023-02-25T16:05:18;8.40;29.60
2623;DHT22;1321;48.690;9.022;2023-02-25T16:07:49;8.40;30.20
2623;DHT22;1321;48.690;9.022;2023-02-25T16:10:24;8.30;29.10
2623;DHT22;1321;48.690;9.022;2023-02-25T16:12:55;8.30;28.20
2623;DHT22;1321;48.690;9.022;2023-02-25T16:15:28;8.30;28.40
2623;DHT22;1321;48.690;9.022;2023-02-25T16:18:06;8.20;28.10
2623;DHT22;1321;48.690;9.022;2023-02-25T16:20:41;8.20;28.20
2623;DHT22;1321;48.690;9.022;2023-02-25T16:23:13;8.20;28.50
2623;DHT22;1321;48.690;9.022;2023-02-25T16:25:50;8.20;28.50
2623;DHT22;1321;48.690;9.022;2023-02-25T16:28:28;8.20;31.30
2623;DHT22;1321;48.690;9.022;2023-02-25T16:31:03;8.20;30.70
2623;DHT22;1321;48.690;9.022;2023-02-25T16:33:39;8.20;47.50
2623;DHT22;1321;48.690;9.022;2023-02-25T16:36:14;8.20;36.70
2623;DHT22;1321;48.690;9.022;2023-02-25T16:38:55;8.10;40.00
2623;DHT22;1321;48.690;9.022;2023-02-25T16:41:33;8.10;43.70
2623;DHT22;1321;48.690;9.022;2023-02-25T16:44:06;7.90;45.60
2623;DHT22;1321;48.690;9.022;2023-02-25T16:46:36;7.70;50.00
2623;DHT22;1321;48.690;9.022;2023-02-25T16:49:10;7.70;53.40
2623;DHT22;1321;48.690;9.022;2023-02-25T16:51:45;7.60;54.80
2623;DHT22;1321;48.690;9.022;2023-02-25T16:54:16;7.50;57.00
2623;DHT22;1321;48.690;9.022;2023-02-25T16:56:48;7.50;62.30
2623;DHT22;1321;48.690;9.022;2023-02-25T16:59:20;7.50;61.60
2623;DHT22;1321;48.690;9.022;2023-02-25T17:01:55;7.50;64.50
2623;DHT22;1321;48.690;9.022;2023-02-25T17:04:27;7.50;68.30
2623;DHT22;1321;48.690;9.022;2023-02-25T17:07:11;7.40;67.90
2623;DHT22;1321;48.690;9.022;2023-02-25T17:09:44;7.30;70.30
2623;DHT22;1321;48.690;9.022;2023-02-25T17:12:16;7.40;72.20
2623;DHT22;1321;48.690;9.022;2023-02-25T17:14:48;7.30;72.00
2623;DHT22;1321;48.690;9.022;2023-02-25T17:17:22;7.30;75.70
2623;DHT22;1321;48.690;9.022;2023-02-25T17:19:52;7.30;76.00
2623;DHT22;1321;48.690;9.022;2023-02-25T17:22:22;7.30;76.30
2623;DHT22;1321;48.690;9.022;2023-02-25T17:24:51;7.30;78.50
2623;DHT22;1321;48.690;9.022;2023-02-25T17:27:21;7.30;77.40
2623;DHT22;1321;48.690;9.022;2023-02-25T17:29:51;7.20;80.20
2623;DHT22;1321;48.690;9.022;2023-02-25T17:32:22;7.20;81.50
2623;DHT22;1321;48.690;9.022;2023-02-25T17:34:52;7.20;83.70
2623;DHT22;1321;48.690;9.022;2023-02-25T17:37:22;7.30;85.10
2623;DHT22;1321;48.690;9.022;2023-02-25T17:39:52;7.20;83.70
2623;DHT22;1321;48.690;9.022;2023-02-25T17:42:31;7.10;84.50
2623;DHT22;1321;48.690;9.022;2023-02-25T17:45:04;6.80;82.90